createdAt,value
2022-08-30T00:01:01.889Z,13.48
2022-08-30T00:03:34.581Z,13.42
2022-08-30T00:06:01.065Z,13.44
2022-08-30T00:08:27.847Z,13.41
2022-08-30T00:10:54.776Z,13.39
2022-08-30T00:13:22.407Z,13.36
2022-08-30T00:15:49.255Z,13.32
2022-08-30T00:18:18.193Z,13.21
2022-08-30T00:20:47.676Z,13.19
2022-08-30T00:23:14.588Z,13.15
2022-08-30T00:25:42.176Z,13.11
2022-08-30T00:28:09.685Z,12.98
2022-08-30T00:30:37.519Z,12.92
2022-08-30T00:33:04.604Z,12.78
2022-08-30T00:35:31.331Z,12.73
2022-08-30T00:37:58.427Z,12.79
2022-08-30T00:40:27.934Z,12.77
2022-08-30T00:43:02.262Z,12.83
2022-08-30T00:45:35.301Z,12.87
2022-08-30T00:48:02.845Z,12.83
2022-08-30T00:50:32.792Z,12.74
2022-08-30T00:53:01.141Z,12.57
2022-08-30T00:55:29.612Z,12.50
2022-08-30T00:58:00.227Z,12.54
2022-08-30T01:00:28.664Z,12.56
2022-08-30T01:02:55.651Z,12.54
2022-08-30T01:05:24.324Z,12.54
2022-08-30T01:07:50.769Z,12.51
2022-08-30T01:10:18.312Z,12.48
2022-08-30T01:12:45.309Z,12.57
2022-08-30T01:15:14.458Z,12.57
2022-08-30T01:17:43.762Z,12.53
2022-08-30T01:20:38.271Z,12.51
2022-08-30T01:23:14.621Z,12.51
2022-08-30T01:25:43.752Z,12.51
2022-08-30T01:28:15.782Z,12.54
2022-08-30T01:30:45.746Z,12.57
2022-08-30T01:33:13.495Z,12.59
2022-08-30T01:35:56.843Z,12.56
2022-08-30T01:38:28.735Z,12.56
2022-08-30T01:41:10.576Z,12.46
2022-08-30T01:43:37.326Z,12.38
2022-08-30T01:46:06.163Z,12.34
2022-08-30T01:48:34.835Z,12.33
2022-08-30T01:51:02.278Z,12.30
2022-08-30T01:53:29.227Z,12.27
2022-08-30T01:55:56.380Z,12.25
2022-08-30T01:58:23.208Z,12.21
2022-08-30T02:00:50.225Z,12.23
2022-08-30T02:03:17.188Z,12.12
2022-08-30T02:05:43.687Z,12.10
2022-08-30T02:08:10.071Z,12.13
2022-08-30T02:10:36.869Z,12.22
2022-08-30T02:13:04.176Z,12.26
2022-08-30T02:15:30.680Z,12.19
2022-08-30T02:18:01.417Z,12.19
2022-08-30T02:20:28.602Z,12.16
2022-08-30T02:22:56.725Z,12.15
2022-08-30T02:25:26.030Z,12.11
2022-08-30T02:27:52.792Z,12.06
2022-08-30T02:30:19.148Z,11.98
2022-08-30T02:32:45.514Z,11.99
2022-08-30T02:35:12.263Z,11.87
2022-08-30T02:37:39.043Z,11.81
2022-08-30T02:40:07.482Z,11.85
2022-08-30T02:42:34.078Z,11.82
2022-08-30T02:45:01.077Z,11.73
2022-08-30T02:47:27.619Z,11.75
2022-08-30T02:49:53.995Z,11.84
2022-08-30T02:52:20.777Z,11.84
2022-08-30T02:54:55.100Z,11.89
2022-08-30T02:57:22.087Z,11.84
2022-08-30T02:59:49.149Z,11.83
2022-08-30T03:02:15.888Z,11.82
2022-08-30T03:04:45.068Z,11.71
2022-08-30T03:07:12.639Z,11.75
2022-08-30T03:09:39.607Z,11.71
2022-08-30T03:12:08.189Z,11.66
2022-08-30T03:14:36.640Z,11.58
2022-08-30T03:17:06.669Z,11.46
2022-08-30T03:19:38.416Z,11.39
2022-08-30T03:22:06.787Z,11.40
2022-08-30T03:24:34.519Z,11.54
2022-08-30T03:27:01.364Z,11.54
2022-08-30T03:29:30.171Z,11.54
2022-08-30T03:31:57.408Z,11.50
2022-08-30T03:34:25.650Z,11.50
2022-08-30T03:36:54.182Z,11.44
2022-08-30T03:39:22.325Z,11.39
2022-08-30T03:41:49.291Z,11.39
2022-08-30T03:44:16.275Z,11.43
2022-08-30T03:46:43.247Z,11.49
2022-08-30T03:49:09.646Z,11.49
2022-08-30T03:51:36.578Z,11.42
2022-08-30T03:54:03.321Z,11.35
2022-08-30T03:56:29.982Z,11.31
2022-08-30T03:58:57.174Z,11.31
2022-08-30T04:01:23.584Z,11.37
2022-08-30T04:03:49.980Z,11.32
2022-08-30T04:06:17.295Z,11.30
2022-08-30T04:08:46.288Z,11.28
2022-08-30T04:11:14.901Z,11.29
2022-08-30T04:13:41.269Z,11.29
2022-08-30T04:16:07.720Z,11.15
2022-08-30T04:18:35.948Z,11.14
2022-08-30T04:21:03.838Z,11.20
2022-08-30T04:23:30.683Z,11.18
2022-08-30T04:25:58.048Z,11.22
2022-08-30T04:28:24.403Z,11.29
2022-08-30T04:30:51.243Z,11.30
2022-08-30T04:33:18.144Z,11.27
2022-08-30T04:35:47.730Z,11.20
2022-08-30T04:38:15.851Z,11.15
2022-08-30T04:40:44.148Z,11.07
2022-08-30T04:43:12.712Z,11.06
2022-08-30T04:45:40.940Z,11.20
2022-08-30T04:48:08.525Z,11.31
2022-08-30T04:50:34.916Z,11.41
2022-08-30T04:53:01.827Z,11.52
2022-08-30T04:55:28.350Z,11.61
2022-08-30T04:57:54.924Z,11.59
2022-08-30T05:00:21.919Z,11.68
2022-08-30T05:02:48.994Z,11.73
2022-08-30T05:05:34.206Z,11.69
2022-08-30T05:08:00.743Z,11.75
2022-08-30T05:10:29.938Z,11.90
2022-08-30T05:12:56.851Z,12.01
2022-08-30T05:15:23.809Z,12.21
2022-08-30T05:17:50.238Z,12.36
2022-08-30T05:20:17.688Z,12.41
2022-08-30T05:22:53.273Z,12.46
2022-08-30T05:25:26.538Z,12.34
2022-08-30T05:27:53.582Z,12.25
2022-08-30T05:30:21.474Z,12.27
2022-08-30T05:32:48.434Z,12.40
2022-08-30T05:35:17.283Z,12.59
2022-08-30T05:37:43.843Z,12.61
2022-08-30T05:40:11.856Z,12.58
2022-08-30T05:42:41.235Z,12.56
2022-08-30T05:45:08.476Z,12.69
2022-08-30T05:47:35.959Z,12.83
2022-08-30T05:50:02.903Z,13.16
2022-08-30T05:52:29.313Z,13.36
2022-08-30T05:55:00.447Z,13.54
2022-08-30T05:57:26.838Z,13.61
2022-08-30T05:59:53.223Z,13.81
2022-08-30T06:02:19.993Z,14.00
2022-08-30T06:04:46.427Z,14.11
2022-08-30T06:07:15.746Z,14.43
2022-08-30T06:09:44.282Z,15.51
2022-08-30T06:12:10.755Z,16.86
2022-08-30T06:14:39.549Z,18.02
2022-08-30T06:17:06.511Z,18.88
2022-08-30T06:19:32.935Z,19.87
2022-08-30T06:22:01.170Z,20.25
2022-08-30T06:24:41.041Z,20.97
2022-08-30T06:27:14.586Z,20.86
2022-08-30T06:29:41.606Z,20.77
2022-08-30T06:32:08.014Z,21.82
2022-08-30T06:34:34.950Z,22.40
2022-08-30T06:37:01.375Z,23.49
2022-08-30T06:39:27.901Z,24.24
2022-08-30T06:41:54.587Z,24.97
2022-08-30T06:44:21.116Z,25.36
2022-08-30T06:46:47.931Z,25.69
2022-08-30T06:49:14.871Z,26.48
2022-08-30T06:51:42.110Z,26.92
2022-08-30T06:54:11.997Z,26.36
2022-08-30T06:56:48.593Z,27.14
2022-08-30T06:59:24.473Z,27.53
2022-08-30T07:01:50.892Z,27.73
2022-08-30T07:04:17.613Z,27.52
2022-08-30T07:06:44.848Z,27.69
2022-08-30T07:09:11.663Z,28.02
2022-08-30T07:11:41.285Z,27.91
2022-08-30T07:14:08.452Z,27.60
2022-08-30T07:16:35.959Z,28.87
2022-08-30T07:19:03.851Z,29.30
2022-08-30T07:21:49.558Z,30.12
2022-08-30T07:24:16.493Z,29.74
2022-08-30T07:26:47.164Z,29.20
2022-08-30T07:29:13.959Z,28.13
2022-08-30T07:31:40.445Z,27.78
2022-08-30T07:34:08.514Z,28.02
2022-08-30T07:36:37.483Z,28.96
2022-08-30T07:39:05.191Z,29.46
2022-08-30T07:41:35.656Z,29.40
2022-08-30T07:44:02.325Z,28.09
2022-08-30T07:46:28.895Z,28.13
2022-08-30T07:48:56.352Z,28.43
2022-08-30T07:51:26.304Z,28.95
2022-08-30T07:53:53.174Z,28.67
2022-08-30T07:56:21.105Z,28.78
2022-08-30T07:58:48.882Z,29.58
2022-08-30T08:01:17.161Z,29.73
2022-08-30T08:03:44.339Z,30.25
2022-08-30T08:06:13.919Z,31.15
2022-08-30T08:08:42.188Z,31.40
2022-08-30T08:11:16.442Z,31.31
2022-08-30T08:13:53.013Z,31.03
2022-08-30T08:16:27.355Z,31.46
2022-08-30T08:18:54.560Z,31.42
2022-08-30T08:21:22.588Z,30.33
2022-08-30T08:23:49.967Z,31.05
2022-08-30T08:26:16.565Z,30.60
2022-08-30T08:28:44.928Z,31.27
2022-08-30T08:31:20.633Z,31.62
2022-08-30T08:33:47.344Z,30.70
2022-08-30T08:36:14.034Z,30.36
2022-08-30T08:38:40.853Z,30.71
2022-08-30T08:41:28.626Z,30.90
2022-08-30T08:43:55.577Z,31.74
2022-08-30T08:46:40.294Z,31.03
2022-08-30T08:49:12.535Z,32.04
2022-08-30T08:51:58.411Z,33.02
2022-08-30T08:54:34.669Z,30.77
2022-08-30T08:57:01.132Z,29.68
2022-08-30T08:59:28.203Z,29.21
2022-08-30T09:01:59.374Z,29.41
2022-08-30T09:04:32.377Z,30.09
2022-08-30T09:07:05.731Z,30.62
2022-08-30T09:09:35.744Z,30.20
2022-08-30T09:12:03.968Z,30.13
2022-08-30T09:14:36.836Z,30.80
2022-08-30T09:17:09.547Z,30.03
2022-08-30T09:19:51.698Z,31.19
2022-08-30T09:22:26.930Z,31.44
2022-08-30T09:25:13.513Z,31.32
2022-08-30T09:27:40.339Z,31.49
2022-08-30T09:30:16.935Z,31.85
2022-08-30T09:32:53.009Z,32.28
2022-08-30T09:35:42.837Z,32.27
2022-08-30T09:38:19.163Z,33.01
2022-08-30T09:40:55.507Z,32.32
2022-08-30T09:43:23.876Z,31.95
2022-08-30T09:46:01.592Z,30.81
2022-08-30T09:48:33.050Z,31.35
2022-08-30T09:51:12.047Z,30.72
2022-08-30T09:57:03.335Z,31.01
2022-08-30T10:00:08.455Z,31.97
2022-08-30T10:02:46.727Z,31.68
2022-08-30T10:05:20.703Z,30.59
2022-08-30T10:08:06.080Z,31.96
2022-08-30T10:10:51.623Z,30.49
2022-08-30T10:13:42.652Z,31.49
2022-08-30T10:16:19.591Z,29.34
2022-08-30T10:19:17.422Z,30.41
2022-08-30T10:21:51.553Z,31.10
2022-08-30T10:24:24.280Z,31.60
2022-08-30T10:27:05.314Z,31.51
2022-08-30T10:29:34.175Z,31.64
2022-08-30T10:32:17.918Z,32.54
2022-08-30T10:35:05.907Z,31.90
2022-08-30T10:37:39.068Z,31.31
2022-08-30T10:40:33.497Z,31.56
2022-08-30T10:43:04.606Z,32.38
2022-08-30T10:45:35.745Z,31.75
2022-08-30T10:48:21.024Z,31.23
2022-08-30T10:50:54.146Z,31.09
2022-08-30T10:53:36.953Z,31.65
2022-08-30T10:56:11.470Z,31.20
2022-08-30T10:58:41.412Z,31.30
2022-08-30T11:01:31.493Z,31.38
2022-08-30T11:04:07.265Z,30.99
2022-08-30T11:06:56.339Z,31.34
2022-08-30T11:10:00.213Z,32.23
2022-08-30T11:12:37.623Z,31.33
2022-08-30T11:15:15.770Z,31.51
2022-08-30T11:18:09.523Z,30.85
2022-08-30T11:20:43.328Z,29.39
2022-08-30T11:23:30.521Z,31.01
2022-08-30T11:26:12.153Z,31.79
2022-08-30T11:28:47.106Z,32.57
2022-08-30T11:31:22.647Z,30.68
2022-08-30T11:33:59.473Z,29.88
2022-08-30T11:36:37.753Z,32.10
2022-08-30T11:39:09.447Z,32.66
2022-08-30T11:41:46.142Z,31.05
2022-08-30T11:44:32.259Z,30.88
2022-08-30T11:47:02.446Z,32.49
2022-08-30T11:49:50.184Z,32.00
2022-08-30T11:52:35.278Z,30.83
2022-08-30T11:55:37.126Z,31.77
2022-08-30T11:58:28.039Z,32.46
2022-08-30T12:01:49.634Z,31.83
2022-08-30T12:04:17.645Z,32.67
2022-08-30T12:06:52.784Z,31.88
2022-08-30T12:09:25.359Z,32.00
2022-08-30T12:12:11.592Z,32.74
2022-08-30T12:14:47.483Z,31.91
2022-08-30T12:17:41.616Z,32.62
2022-08-30T12:20:40.963Z,31.66
2022-08-30T12:23:26.991Z,32.07
2022-08-30T12:26:34.434Z,32.41
2022-08-30T12:29:24.426Z,31.57
2022-08-30T12:31:55.519Z,30.65
2022-08-30T12:34:24.684Z,31.27
2022-08-30T12:36:58.705Z,30.74
2022-08-30T12:39:33.730Z,30.49
2022-08-30T12:42:22.257Z,28.72
2022-08-30T12:44:55.618Z,29.25
2022-08-30T12:47:31.581Z,29.92
2022-08-30T12:49:59.505Z,29.60
2022-08-30T12:52:26.433Z,30.39
2022-08-30T12:54:55.683Z,30.34
2022-08-30T12:57:43.188Z,29.74
2022-08-30T13:00:34.062Z,30.32
2022-08-30T13:03:25.146Z,30.15
2022-08-30T13:05:53.370Z,30.19
2022-08-30T13:08:36.862Z,31.68
2022-08-30T13:11:25.416Z,31.48
2022-08-30T13:14:18.246Z,31.89
2022-08-30T13:16:46.407Z,30.63
2022-08-30T13:19:33.556Z,30.57
2022-08-30T13:22:01.421Z,30.77
2022-08-30T13:24:29.031Z,31.24
2022-08-30T13:26:58.171Z,31.68
2022-08-30T13:29:27.876Z,32.32
2022-08-30T13:31:55.796Z,32.05
2022-08-30T13:34:22.772Z,32.57
2022-08-30T13:36:58.216Z,31.32
2022-08-30T13:39:25.099Z,30.94
2022-08-30T13:41:52.682Z,30.45
2022-08-30T13:44:19.898Z,29.78
2022-08-30T13:46:54.409Z,29.22
2022-08-30T13:52:21.560Z,29.02
2022-08-30T13:54:53.916Z,29.53
2022-08-30T14:00:14.903Z,28.53
2022-08-30T14:02:45.362Z,28.67
2022-08-30T14:05:30.835Z,28.63
2022-08-30T14:08:00.582Z,29.22
2022-08-30T14:10:31.153Z,28.61
2022-08-30T14:13:08.191Z,27.54
2022-08-30T14:15:39.036Z,27.16
2022-08-30T14:18:06.675Z,27.51
2022-08-30T14:20:35.348Z,27.80
2022-08-30T14:23:07.667Z,27.63
2022-08-30T14:25:37.650Z,27.54
2022-08-30T14:28:07.032Z,27.49
2022-08-30T14:30:33.897Z,27.54
2022-08-30T14:33:00.455Z,27.61
2022-08-30T14:35:26.826Z,27.45
2022-08-30T14:37:54.496Z,27.29
2022-08-30T14:40:21.002Z,27.56
2022-08-30T14:42:47.385Z,27.34
2022-08-30T14:45:14.389Z,27.37
2022-08-30T14:47:40.831Z,27.39
2022-08-30T14:50:07.995Z,27.29
2022-08-30T14:52:35.366Z,27.02
2022-08-30T14:55:08.515Z,26.92
2022-08-30T14:57:35.627Z,26.33
2022-08-30T15:00:07.779Z,26.82
2022-08-30T15:02:34.208Z,26.51
2022-08-30T15:05:00.693Z,26.79
2022-08-30T15:07:27.925Z,27.25
2022-08-30T15:09:54.409Z,27.77
2022-08-30T15:12:20.879Z,27.96
2022-08-30T15:14:47.677Z,27.93
2022-08-30T15:17:14.087Z,28.03
2022-08-30T15:19:41.789Z,28.01
2022-08-30T15:22:09.685Z,28.03
2022-08-30T15:24:36.667Z,27.47
2022-08-30T15:27:03.397Z,27.50
2022-08-30T15:29:31.740Z,27.03
2022-08-30T15:31:58.959Z,27.02
2022-08-30T15:34:26.194Z,26.40
2022-08-30T15:36:55.044Z,25.83
2022-08-30T15:39:21.473Z,25.31
2022-08-30T15:41:56.039Z,25.44
2022-08-30T15:44:25.427Z,25.83
2022-08-30T15:46:52.060Z,25.92
2022-08-30T15:49:21.478Z,26.08
2022-08-30T15:51:51.548Z,26.35
2022-08-30T15:54:23.179Z,26.32
2022-08-30T15:56:50.714Z,26.35
2022-08-30T15:59:18.661Z,26.30
2022-08-30T16:01:45.389Z,26.38
2022-08-30T16:04:18.648Z,26.37
2022-08-30T16:06:46.030Z,26.16
2022-08-30T16:09:12.466Z,25.99
2022-08-30T16:11:39.889Z,26.16
2022-08-30T16:14:06.371Z,26.31
2022-08-30T16:16:33.307Z,26.27
2022-08-30T16:19:01.735Z,25.94
2022-08-30T16:21:33.140Z,25.75
2022-08-30T16:24:01.408Z,25.83
2022-08-30T16:26:30.630Z,25.54
2022-08-30T16:28:58.705Z,25.36
2022-08-30T16:31:27.356Z,25.37
2022-08-30T16:33:55.641Z,25.36
2022-08-30T16:36:29.627Z,25.48
2022-08-30T16:38:58.310Z,25.38
2022-08-30T16:41:25.256Z,25.47
2022-08-30T16:43:53.648Z,25.56
2022-08-30T16:46:23.352Z,25.80
2022-08-30T16:48:56.174Z,25.73
2022-08-30T16:51:24.383Z,25.73
2022-08-30T16:53:54.725Z,25.74
2022-08-30T16:56:24.423Z,25.54
2022-08-30T16:59:00.708Z,25.65
2022-08-30T17:01:29.010Z,25.48
2022-08-30T17:03:55.912Z,25.08
2022-08-30T17:06:22.623Z,24.83
2022-08-30T17:08:48.967Z,24.84
2022-08-30T17:11:22.860Z,24.68
2022-08-30T17:13:49.248Z,24.57
2022-08-30T17:16:27.693Z,24.40
2022-08-30T17:19:00.813Z,24.45
2022-08-30T17:21:29.526Z,24.12
2022-08-30T17:24:01.462Z,24.02
2022-08-30T17:26:29.252Z,23.90
2022-08-30T17:28:55.622Z,23.67
2022-08-30T17:31:22.398Z,23.59
2022-08-30T17:33:50.002Z,23.52
2022-08-30T17:36:16.410Z,23.51
2022-08-30T17:38:45.200Z,23.38
2022-08-30T17:41:13.498Z,23.13
2022-08-30T17:43:40.133Z,23.10
2022-08-30T17:46:12.002Z,22.97
2022-08-30T17:48:40.971Z,22.81
2022-08-30T17:51:07.946Z,22.66
2022-08-30T17:53:34.599Z,22.56
2022-08-30T17:56:01.483Z,22.39
2022-08-30T17:58:28.051Z,22.23
2022-08-30T18:01:11.689Z,22.09
2022-08-30T18:03:39.246Z,21.95
2022-08-30T18:06:06.671Z,21.81
2022-08-30T18:08:34.028Z,21.70
2022-08-30T18:11:01.074Z,21.63
2022-08-30T18:13:27.479Z,21.40
2022-08-30T18:15:54.280Z,21.30
2022-08-30T18:18:21.108Z,21.23
2022-08-30T18:20:47.755Z,21.00
2022-08-30T18:23:14.981Z,20.69
2022-08-30T18:25:42.031Z,20.63
2022-08-30T18:28:08.732Z,20.52
2022-08-30T18:30:41.410Z,20.28
2022-08-30T18:33:09.202Z,20.17
2022-08-30T18:35:36.346Z,20.08
2022-08-30T18:38:03.809Z,19.95
2022-08-30T18:40:30.438Z,19.79
2022-08-30T18:42:56.807Z,19.63
2022-08-30T18:45:24.347Z,19.46
2022-08-30T18:47:50.813Z,19.41
2022-08-30T18:50:17.309Z,19.28
2022-08-30T18:52:47.054Z,19.22
2022-08-30T18:55:14.003Z,19.14
2022-08-30T18:57:40.642Z,19.05
2022-08-30T19:00:09.761Z,18.93
2022-08-30T19:02:36.652Z,18.84
2022-08-30T19:05:03.361Z,18.72
2022-08-30T19:07:34.400Z,18.59
2022-08-30T19:10:05.483Z,18.57
2022-08-30T19:12:32.262Z,18.53
2022-08-30T19:14:59.271Z,18.46
2022-08-30T19:17:27.078Z,18.35
2022-08-30T19:19:54.913Z,18.28
2022-08-30T19:22:26.793Z,18.17
2022-08-30T19:24:55.171Z,18.07
2022-08-30T19:27:37.785Z,17.94
2022-08-30T19:30:08.843Z,17.85
2022-08-30T19:32:35.691Z,17.84
2022-08-30T19:35:02.068Z,17.76
2022-08-30T19:37:29.545Z,17.65
2022-08-30T19:39:56.295Z,17.52
2022-08-30T19:42:27.051Z,17.50
2022-08-30T19:44:53.448Z,17.36
2022-08-30T19:47:19.822Z,17.29
2022-08-30T19:49:46.752Z,17.18
2022-08-30T19:52:13.647Z,17.15
2022-08-30T19:57:27.517Z,17.19
2022-08-30T19:59:54.236Z,17.12
2022-08-30T20:02:20.705Z,17.14
2022-08-30T20:04:47.466Z,17.09
2022-08-30T20:07:14.492Z,17.07
2022-08-30T20:09:41.211Z,17.04
2022-08-30T20:12:07.755Z,16.97
2022-08-30T20:14:34.107Z,16.89
2022-08-30T20:17:02.237Z,16.79
2022-08-30T20:19:29.336Z,16.78
2022-08-30T20:21:59.073Z,16.81
2022-08-30T20:24:32.574Z,16.65
2022-08-30T20:26:59.266Z,16.71
2022-08-30T20:29:25.619Z,16.73
2022-08-30T20:31:52.431Z,16.76
2022-08-30T20:34:24.499Z,16.67
2022-08-30T20:36:52.464Z,16.71
2022-08-30T20:39:22.391Z,16.72
2022-08-30T20:41:49.294Z,16.69
2022-08-30T20:44:16.857Z,16.69
2022-08-30T20:46:46.024Z,16.66
2022-08-30T20:49:13.036Z,16.73
2022-08-30T20:51:40.042Z,16.70
2022-08-30T20:54:07.474Z,16.80
2022-08-30T20:56:34.410Z,16.77
2022-08-30T20:59:02.638Z,16.65
2022-08-30T21:01:31.610Z,16.48
2022-08-30T21:03:58.182Z,16.55
2022-08-30T21:06:25.235Z,16.49
2022-08-30T21:08:52.771Z,16.54
2022-08-30T21:11:19.560Z,16.46
2022-08-30T21:13:48.204Z,16.47
2022-08-30T21:16:17.110Z,16.42
2022-08-30T21:18:48.707Z,16.40
2022-08-30T21:21:22.711Z,16.23
2022-08-30T21:23:50.477Z,16.20
2022-08-30T21:26:17.479Z,16.07
2022-08-30T21:28:47.394Z,16.15
2022-08-30T21:31:19.252Z,16.20
2022-08-30T21:33:48.226Z,16.22
2022-08-30T21:36:34.460Z,16.28
2022-08-30T21:39:01.138Z,16.31
2022-08-30T21:41:28.713Z,16.35
2022-08-30T21:44:01.197Z,16.41
2022-08-30T21:46:29.264Z,16.38
2022-08-30T21:48:59.100Z,16.39
2022-08-30T21:51:25.798Z,16.28
2022-08-30T21:53:52.162Z,16.16
2022-08-30T21:56:22.114Z,15.87
2022-08-30T21:58:50.199Z,15.91
2022-08-30T22:01:24.939Z,15.92
2022-08-30T22:03:57.184Z,15.94
2022-08-30T22:06:25.230Z,15.92
2022-08-30T22:08:59.489Z,15.97
2022-08-30T22:11:27.375Z,15.85
2022-08-30T22:13:54.933Z,15.82
2022-08-30T22:16:23.096Z,15.82
2022-08-30T22:18:50.356Z,15.84
2022-08-30T22:21:20.702Z,15.88
2022-08-30T22:23:47.126Z,15.90
2022-08-30T22:26:16.212Z,15.96
2022-08-30T22:28:42.675Z,15.97
2022-08-30T22:31:12.283Z,15.95
2022-08-30T22:33:39.418Z,15.96
2022-08-30T22:36:21.310Z,16.03
2022-08-30T22:38:48.767Z,16.08
2022-08-30T22:41:17.474Z,15.99
2022-08-30T22:43:45.192Z,15.95
2022-08-30T22:46:12.073Z,15.97
2022-08-30T22:48:40.903Z,16.03
2022-08-30T22:51:08.469Z,16.16
2022-08-30T22:53:34.876Z,16.18
2022-08-30T22:56:09.459Z,16.28
2022-08-30T22:58:36.206Z,16.37
2022-08-30T23:01:02.707Z,16.40
2022-08-30T23:03:29.225Z,16.44
2022-08-30T23:05:55.946Z,16.47
2022-08-30T23:08:22.928Z,16.40
2022-08-30T23:10:49.369Z,16.33
2022-08-30T23:13:15.742Z,16.21
2022-08-30T23:15:42.870Z,16.18
2022-08-30T23:18:09.603Z,16.21
2022-08-30T23:20:36.060Z,16.12
2022-08-30T23:23:03.015Z,16.06
2022-08-30T23:25:51.866Z,16.07
2022-08-30T23:28:39.427Z,15.99
2022-08-30T23:31:33.974Z,15.92
2022-08-30T23:34:20.533Z,15.89
2022-08-30T23:37:05.900Z,15.94
2022-08-30T23:39:51.825Z,16.06
2022-08-30T23:42:36.606Z,16.07
2022-08-30T23:45:21.991Z,16.05
2022-08-30T23:48:06.735Z,15.97
2022-08-30T23:50:51.968Z,15.91
2022-08-30T23:53:36.748Z,15.78
2022-08-30T23:56:22.412Z,15.80
2022-08-30T23:59:07.275Z,15.80
